sensor_id;sensor_type;location;lat;lon;timestamp;temperature;humidity
6843;DHT22;3460;52.028;8.916;2023-04-19T00:01:28;9.70;99.90
6843;DHT22;3460;52.028;8.916;2023-04-19T00:03:55;9.60;99.90
6843;DHT22;3460;52.028;8.916;2023-04-19T00:06:22;9.60;99.90
6843;DHT22;3460;52.028;8.916;2023-04-19T00:08:50;9.60;99.90
6843;DHT22;3460;52.028;8.916;2023-04-19T00:11:17;9.60;99.90
6843;DHT22;3460;52.028;8.916;2023-04-19T00:13:45;9.50;99.90
6843;DHT22;3460;52.028;8.916;2023-04-19T00:16:13;9.50;99.90
6843;DHT22;3460;52.028;8.916;2023-04-19T00:18:40;9.50;99.90
6843;DHT22;3460;52.028;8.916;2023-04-19T00:21:07;9.50;99.90
6843;DHT22;3460;52.028;8.916;2023-04-19T00:23:34;9.50;99.90
6843;DHT22;3460;52.028;8.916;2023-04-19T00:26:02;9.50;99.90
6843;DHT22;3460;52.028;8.916;2023-04-19T00:28:29;9.50;99.90
6843;DHT22;3460;52.028;8.916;2023-04-19T00:30:57;9.40;99.90
6843;DHT22;3460;52.028;8.916;2023-04-19T00:33:24;9.40;99.90
6843;DHT22;3460;52.028;8.916;2023-04-19T00:35:51;9.40;99.90
6843;DHT22;3460;52.028;8.916;2023-04-19T00:38:18;9.40;99.90
6843;DHT22;3460;52.028;8.916;2023-04-19T00:40:44;9.40;99.90
6843;DHT22;3460;52.028;8.916;2023-04-19T00:43:16;9.40;99.90
6843;DHT22;3460;52.028;8.916;2023-04-19T00:45:43;9.40;99.90
6843;DHT22;3460;52.028;8.916;2023-04-19T00:48:11;9.40;99.90
6843;DHT22;3460;52.028;8.916;2023-04-19T00:50:39;9.40;99.90
6843;DHT22;3460;52.028;8.916;2023-04-19T00:53:07;9.40;99.90
6843;DHT22;3460;52.028;8.916;2023-04-19T00:55:33;9.40;99.90
6843;DHT22;3460;52.028;8.916;2023-04-19T00:58:01;9.40;99.90
6843;DHT22;3460;52.028;8.916;2023-04-19T01:00:28;9.40;99.90
6843;DHT22;3460;52.028;8.916;2023-04-19T01:02:55;9.40;99.90
6843;DHT22;3460;52.028;8.916;2023-04-19T01:05:23;9.40;99.90
6843;DHT22;3460;52.028;8.916;2023-04-19T01:07:50;9.40;99.90
6843;DHT22;3460;52.028;8.916;2023-04-19T01:10:17;9.40;99.90
6843;DHT22;3460;52.028;8.916;2023-04-19T01:12:44;9.40;99.90
6843;DHT22;3460;52.028;8.916;2023-04-19T01:15:11;9.40;99.90
6843;DHT22;3460;52.028;8.916;2023-04-19T01:17:38;9.40;99.90
6843;DHT22;3460;52.028;8.916;2023-04-19T01:20:06;9.40;99.90
6843;DHT22;3460;52.028;8.916;2023-04-19T01:22:34;9.30;99.90
6843;DHT22;3460;52.028;8.916;2023-04-19T01:25:02;9.30;99.90
6843;DHT22;3460;52.028;8.916;2023-04-19T01:27:30;9.30;99.90
6843;DHT22;3460;52.028;8.916;2023-04-19T01:29:56;9.20;99.90
6843;DHT22;3460;52.028;8.916;2023-04-19T01:32:23;9.20;99.90
6843;DHT22;3460;52.028;8.916;2023-04-19T01:34:51;9.20;99.90
6843;DHT22;3460;52.028;8.916;2023-04-19T01:37:18;9.20;99.90
6843;DHT22;3460;52.028;8.916;2023-04-19T01:39:46;9.20;99.90
6843;DHT22;3460;52.028;8.916;2023-04-19T01:42:13;9.10;99.90
6843;DHT22;3460;52.028;8.916;2023-04-19T01:44:40;9.10;99.90
6843;DHT22;3460;52.028;8.916;2023-04-19T01:47:06;9.10;99.90
6843;DHT22;3460;52.028;8.916;2023-04-19T01:49:33;9.10;99.90
6843;DHT22;3460;52.028;8.916;2023-04-19T01:52:00;9.10;99.90
6843;DHT22;3460;52.028;8.916;2023-04-19T01:54:27;9.00;99.90
6843;DHT22;3460;52.028;8.916;2023-04-19T01:56:55;9.00;99.90
6843;DHT22;3460;52.028;8.916;2023-04-19T01:59:22;9.00;99.90
6843;DHT22;3460;52.028;8.916;2023-04-19T02:01:48;9.00;99.90
6843;DHT22;3460;52.028;8.916;2023-04-19T02:04:17;9.00;99.90
6843;DHT22;3460;52.028;8.916;2023-04-19T02:06:44;9.00;99.90
6843;DHT22;3460;52.028;8.916;2023-04-19T02:09:11;9.00;99.90
6843;DHT22;3460;52.028;8.916;2023-04-19T02:11:37;8.90;99.90
6843;DHT22;3460;52.028;8.916;2023-04-19T02:14:06;8.80;99.90
6843;DHT22;3460;52.028;8.916;2023-04-19T02:16:32;8.80;99.90
6843;DHT22;3460;52.028;8.916;2023-04-19T02:18:59;8.80;99.90
6843;DHT22;3460;52.028;8.916;2023-04-19T02:21:26;8.70;99.90
6843;DHT22;3460;52.028;8.916;2023-04-19T02:23:53;8.70;99.90
6843;DHT22;3460;52.028;8.916;2023-04-19T02:26:20;8.50;99.90
6843;DHT22;3460;52.028;8.916;2023-04-19T02:28:49;8.40;99.90
6843;DHT22;3460;52.028;8.916;2023-04-19T02:31:18;8.40;99.90
6843;DHT22;3460;52.028;8.916;2023-04-19T02:33:45;8.50;99.90
6843;DHT22;3460;52.028;8.916;2023-04-19T02:36:12;8.40;99.90
6843;DHT22;3460;52.028;8.916;2023-04-19T02:38:39;8.30;99.90
6843;DHT22;3460;52.028;8.916;2023-04-19T02:41:06;8.20;99.90
6843;DHT22;3460;52.028;8.916;2023-04-19T02:43:32;8.00;99.90
6843;DHT22;3460;52.028;8.916;2023-04-19T02:46:00;7.90;99.90
6843;DHT22;3460;52.028;8.916;2023-04-19T02:48:28;7.80;99.90
6843;DHT22;3460;52.028;8.916;2023-04-19T02:50:55;7.70;99.90
6843;DHT22;3460;52.028;8.916;2023-04-19T02:53:22;7.60;99.90
6843;DHT22;3460;52.028;8.916;2023-04-19T02:55:49;7.50;99.90
6843;DHT22;3460;52.028;8.916;2023-04-19T02:58:16;7.60;99.90
6843;DHT22;3460;52.028;8.916;2023-04-19T03:00:43;7.60;99.90
6843;DHT22;3460;52.028;8.916;2023-04-19T03:03:10;7.50;99.90
6843;DHT22;3460;52.028;8.916;2023-04-19T03:05:38;7.40;99.90
6843;DHT22;3460;52.028;8.916;2023-04-19T03:08:05;7.40;99.90
6843;DHT22;3460;52.028;8.916;2023-04-19T03:10:31;7.40;99.90
6843;DHT22;3460;52.028;8.916;2023-04-19T03:12:58;7.30;99.90
6843;DHT22;3460;52.028;8.916;2023-04-19T03:15:25;7.30;99.90
6843;DHT22;3460;52.028;8.916;2023-04-19T03:17:52;7.30;99.90
6843;DHT22;3460;52.028;8.916;2023-04-19T03:20:19;7.30;99.90
6843;DHT22;3460;52.028;8.916;2023-04-19T03:22:47;7.30;99.90
6843;DHT22;3460;52.028;8.916;2023-04-19T03:25:14;7.30;99.90
6843;DHT22;3460;52.028;8.916;2023-04-19T03:27:42;7.20;99.90
6843;DHT22;3460;52.028;8.916;2023-04-19T03:30:11;7.20;99.90
6843;DHT22;3460;52.028;8.916;2023-04-19T03:32:38;7.10;99.90
6843;DHT22;3460;52.028;8.916;2023-04-19T03:35:05;7.10;99.90
6843;DHT22;3460;52.028;8.916;2023-04-19T03:37:32;7.00;99.90
6843;DHT22;3460;52.028;8.916;2023-04-19T03:40:00;6.90;99.90
6843;DHT22;3460;52.028;8.916;2023-04-19T03:42:28;6.90;99.90
6843;DHT22;3460;52.028;8.916;2023-04-19T03:44:55;6.80;99.90
6843;DHT22;3460;52.028;8.916;2023-04-19T03:47:22;6.80;99.90
6843;DHT22;3460;52.028;8.916;2023-04-19T03:49:49;6.70;99.90
6843;DHT22;3460;52.028;8.916;2023-04-19T03:52:16;6.70;99.90
6843;DHT22;3460;52.028;8.916;2023-04-19T03:54:42;6.70;99.90
6843;DHT22;3460;52.028;8.916;2023-04-19T03:57:11;6.70;99.90
6843;DHT22;3460;52.028;8.916;2023-04-19T03:59:39;6.60;99.90
6843;DHT22;3460;52.028;8.916;2023-04-19T04:02:06;6.60;99.90
6843;DHT22;3460;52.028;8.916;2023-04-19T04:04:33;6.50;99.90
6843;DHT22;3460;52.028;8.916;2023-04-19T04:07:00;6.40;99.90
6843;DHT22;3460;52.028;8.916;2023-04-19T04:09:27;6.40;99.90
6843;DHT22;3460;52.028;8.916;2023-04-19T04:11:53;6.40;99.90
6843;DHT22;3460;52.028;8.916;2023-04-19T04:14:22;6.30;99.90
6843;DHT22;3460;52.028;8.916;2023-04-19T04:16:49;6.20;99.90
6843;DHT22;3460;52.028;8.916;2023-04-19T04:19:16;6.20;99.90
6843;DHT22;3460;52.028;8.916;2023-04-19T04:21:46;6.20;99.90
6843;DHT22;3460;52.028;8.916;2023-04-19T04:24:13;6.20;99.90
6843;DHT22;3460;52.028;8.916;2023-04-19T04:26:40;6.20;99.90
6843;DHT22;3460;52.028;8.916;2023-04-19T04:29:07;6.20;99.90
6843;DHT22;3460;52.028;8.916;2023-04-19T04:31:35;6.10;99.90
6843;DHT22;3460;52.028;8.916;2023-04-19T04:34:02;6.10;99.90
6843;DHT22;3460;52.028;8.916;2023-04-19T04:36:29;6.10;99.90
6843;DHT22;3460;52.028;8.916;2023-04-19T04:38:56;6.10;99.90
6843;DHT22;3460;52.028;8.916;2023-04-19T04:41:23;6.10;99.90
6843;DHT22;3460;52.028;8.916;2023-04-19T04:43:49;6.00;99.90
6843;DHT22;3460;52.028;8.916;2023-04-19T04:46:18;6.00;99.90
6843;DHT22;3460;52.028;8.916;2023-04-19T04:48:46;5.90;99.90
6843;DHT22;3460;52.028;8.916;2023-04-19T04:51:12;5.90;99.90
6843;DHT22;3460;52.028;8.916;2023-04-19T04:53:39;6.00;99.90
6843;DHT22;3460;52.028;8.916;2023-04-19T04:56:06;5.90;99.90
6843;DHT22;3460;52.028;8.916;2023-04-19T04:58:33;5.90;99.90
6843;DHT22;3460;52.028;8.916;2023-04-19T05:01:00;5.90;99.90
6843;DHT22;3460;52.028;8.916;2023-04-19T05:03:27;5.90;99.90
6843;DHT22;3460;52.028;8.916;2023-04-19T05:05:55;5.90;99.90
6843;DHT22;3460;52.028;8.916;2023-04-19T05:08:22;5.90;99.90
6843;DHT22;3460;52.028;8.916;2023-04-19T05:10:49;6.00;99.90
6843;DHT22;3460;52.028;8.916;2023-04-19T05:13:16;5.90;99.90
6843;DHT22;3460;52.028;8.916;2023-04-19T05:15:42;6.00;99.90
6843;DHT22;3460;52.028;8.916;2023-04-19T05:18:09;6.00;99.90
6843;DHT22;3460;52.028;8.916;2023-04-19T05:20:37;6.00;99.90
6843;DHT22;3460;52.028;8.916;2023-04-19T05:23:05;6.00;99.90
6843;DHT22;3460;52.028;8.916;2023-04-19T05:25:32;6.20;99.90
6843;DHT22;3460;52.028;8.916;2023-04-19T05:27:59;6.10;99.90
6843;DHT22;3460;52.028;8.916;2023-04-19T05:30:28;6.00;99.90
6843;DHT22;3460;52.028;8.916;2023-04-19T05:32:55;6.10;99.90
6843;DHT22;3460;52.028;8.916;2023-04-19T05:35:23;6.00;99.90
6843;DHT22;3460;52.028;8.916;2023-04-19T05:37:50;6.00;99.90
6843;DHT22;3460;52.028;8.916;2023-04-19T05:40:18;5.90;99.90
6843;DHT22;3460;52.028;8.916;2023-04-19T05:42:45;6.10;99.90
6843;DHT22;3460;52.028;8.916;2023-04-19T05:45:12;6.20;99.90
6843;DHT22;3460;52.028;8.916;2023-04-19T05:47:40;6.30;99.90
6843;DHT22;3460;52.028;8.916;2023-04-19T05:50:07;6.40;99.90
6843;DHT22;3460;52.028;8.916;2023-04-19T05:52:34;6.30;99.90
6843;DHT22;3460;52.028;8.916;2023-04-19T05:55:01;6.40;99.90
6843;DHT22;3460;52.028;8.916;2023-04-19T05:57:29;6.40;99.90
6843;DHT22;3460;52.028;8.916;2023-04-19T05:59:56;6.50;99.90
6843;DHT22;3460;52.028;8.916;2023-04-19T06:02:22;6.50;99.90
6843;DHT22;3460;52.028;8.916;2023-04-19T06:04:49;6.50;99.90
6843;DHT22;3460;52.028;8.916;2023-04-19T06:07:16;6.60;99.90
6843;DHT22;3460;52.028;8.916;2023-04-19T06:09:43;6.60;99.90
6843;DHT22;3460;52.028;8.916;2023-04-19T06:12:10;6.60;99.90
6843;DHT22;3460;52.028;8.916;2023-04-19T06:14:38;6.60;99.90
6843;DHT22;3460;52.028;8.916;2023-04-19T06:17:05;6.60;99.90
6843;DHT22;3460;52.028;8.916;2023-04-19T06:19:31;6.60;99.90
6843;DHT22;3460;52.028;8.916;2023-04-19T06:21:58;6.60;99.90
6843;DHT22;3460;52.028;8.916;2023-04-19T06:24:26;6.70;99.90
6843;DHT22;3460;52.028;8.916;2023-04-19T06:26:52;6.70;99.90
6843;DHT22;3460;52.028;8.916;2023-04-19T06:29:19;6.60;99.90
6843;DHT22;3460;52.028;8.916;2023-04-19T06:31:49;6.80;99.90
6843;DHT22;3460;52.028;8.916;2023-04-19T06:34:16;6.80;99.90
6843;DHT22;3460;52.028;8.916;2023-04-19T06:36:43;6.80;99.90
6843;DHT22;3460;52.028;8.916;2023-04-19T06:39:10;6.80;99.90
6843;DHT22;3460;52.028;8.916;2023-04-19T06:41:36;6.80;99.90
6843;DHT22;3460;52.028;8.916;2023-04-19T06:44:03;6.90;99.90
6843;DHT22;3460;52.028;8.916;2023-04-19T06:46:30;6.90;99.90
6843;DHT22;3460;52.028;8.916;2023-04-19T06:48:58;6.90;99.90
6843;DHT22;3460;52.028;8.916;2023-04-19T06:51:25;6.90;99.90
6843;DHT22;3460;52.028;8.916;2023-04-19T06:53:52;7.00;99.90
6843;DHT22;3460;52.028;8.916;2023-04-19T06:56:38;7.00;99.90
6843;DHT22;3460;52.028;8.916;2023-04-19T06:59:05;7.10;99.90
6843;DHT22;3460;52.028;8.916;2023-04-19T07:01:32;7.20;99.90
6843;DHT22;3460;52.028;8.916;2023-04-19T07:04:00;7.40;99.90
6843;DHT22;3460;52.028;8.916;2023-04-19T07:06:27;7.60;99.90
6843;DHT22;3460;52.028;8.916;2023-04-19T07:08:54;7.90;99.90
6843;DHT22;3460;52.028;8.916;2023-04-19T07:11:21;8.00;99.90
6843;DHT22;3460;52.028;8.916;2023-04-19T07:13:47;8.30;99.90
6843;DHT22;3460;52.028;8.916;2023-04-19T07:16:14;8.30;99.90
6843;DHT22;3460;52.028;8.916;2023-04-19T07:18:41;8.50;99.90
6843;DHT22;3460;52.028;8.916;2023-04-19T07:21:10;8.60;99.90
6843;DHT22;3460;52.028;8.916;2023-04-19T07:23:37;8.70;99.90
6843;DHT22;3460;52.028;8.916;2023-04-19T07:26:04;8.60;99.90
6843;DHT22;3460;52.028;8.916;2023-04-19T07:28:31;8.70;99.90
6843;DHT22;3460;52.028;8.916;2023-04-19T07:30:58;8.70;99.90
6843;DHT22;3460;52.028;8.916;2023-04-19T07:33:25;8.70;99.90
6843;DHT22;3460;52.028;8.916;2023-04-19T07:35:52;8.90;99.90
6843;DHT22;3460;52.028;8.916;2023-04-19T07:38:20;8.90;99.90
6843;DHT22;3460;52.028;8.916;2023-04-19T07:40:47;8.80;99.90
6843;DHT22;3460;52.028;8.916;2023-04-19T07:43:14;8.90;99.90
6843;DHT22;3460;52.028;8.916;2023-04-19T07:45:41;8.90;99.90
6843;DHT22;3460;52.028;8.916;2023-04-19T07:48:08;9.00;99.90
6843;DHT22;3460;52.028;8.916;2023-04-19T07:50:36;9.10;99.90
6843;DHT22;3460;52.028;8.916;2023-04-19T07:53:02;9.30;99.90
6843;DHT22;3460;52.028;8.916;2023-04-19T07:55:31;9.60;99.90
6843;DHT22;3460;52.028;8.916;2023-04-19T07:57:57;9.60;99.90
6843;DHT22;3460;52.028;8.916;2023-04-19T08:00:24;9.70;99.90
6843;DHT22;3460;52.028;8.916;2023-04-19T08:02:51;9.60;99.90
6843;DHT22;3460;52.028;8.916;2023-04-19T08:05:18;9.80;99.90
6843;DHT22;3460;52.028;8.916;2023-04-19T08:07:45;9.80;99.90
6843;DHT22;3460;52.028;8.916;2023-04-19T08:10:12;9.70;99.90
6843;DHT22;3460;52.028;8.916;2023-04-19T08:12:40;9.50;99.90
6843;DHT22;3460;52.028;8.916;2023-04-19T08:15:07;9.70;99.90
6843;DHT22;3460;52.028;8.916;2023-04-19T08:17:34;10.00;99.90
6843;DHT22;3460;52.028;8.916;2023-04-19T08:20:01;9.90;99.90
6843;DHT22;3460;52.028;8.916;2023-04-19T08:22:29;10.00;99.90
6843;DHT22;3460;52.028;8.916;2023-04-19T08:24:56;10.10;99.90
6843;DHT22;3460;52.028;8.916;2023-04-19T08:27:23;10.10;99.90
6843;DHT22;3460;52.028;8.916;2023-04-19T08:29:53;9.90;99.90
6843;DHT22;3460;52.028;8.916;2023-04-19T08:32:19;10.30;99.90
6843;DHT22;3460;52.028;8.916;2023-04-19T08:34:46;10.40;99.90
6843;DHT22;3460;52.028;8.916;2023-04-19T08:37:14;10.50;99.90
6843;DHT22;3460;52.028;8.916;2023-04-19T08:39:41;10.50;99.90
6843;DHT22;3460;52.028;8.916;2023-04-19T08:42:09;10.60;99.90
6843;DHT22;3460;52.028;8.916;2023-04-19T08:44:36;10.50;99.90
6843;DHT22;3460;52.028;8.916;2023-04-19T08:47:05;10.40;99.90
6843;DHT22;3460;52.028;8.916;2023-04-19T08:49:34;10.60;99.90
6843;DHT22;3460;52.028;8.916;2023-04-19T08:52:01;10.60;99.90
6843;DHT22;3460;52.028;8.916;2023-04-19T08:54:29;10.60;99.90
6843;DHT22;3460;52.028;8.916;2023-04-19T08:56:57;10.80;99.90
6843;DHT22;3460;52.028;8.916;2023-04-19T08:59:24;11.00;99.90
6843;DHT22;3460;52.028;8.916;2023-04-19T09:01:51;11.10;99.90
6843;DHT22;3460;52.028;8.916;2023-04-19T09:04:20;11.10;99.90
6843;DHT22;3460;52.028;8.916;2023-04-19T09:06:47;11.40;99.90
6843;DHT22;3460;52.028;8.916;2023-04-19T09:09:15;11.60;99.90
6843;DHT22;3460;52.028;8.916;2023-04-19T09:11:42;11.60;99.90
6843;DHT22;3460;52.028;8.916;2023-04-19T09:14:10;11.10;99.90
6843;DHT22;3460;52.028;8.916;2023-04-19T09:16:37;11.20;99.90
6843;DHT22;3460;52.028;8.916;2023-04-19T09:19:05;11.40;99.90
6843;DHT22;3460;52.028;8.916;2023-04-19T09:21:35;11.30;99.90
6843;DHT22;3460;52.028;8.916;2023-04-19T09:24:02;11.50;99.90
6843;DHT22;3460;52.028;8.916;2023-04-19T09:26:30;11.50;99.90
6843;DHT22;3460;52.028;8.916;2023-04-19T09:28:58;11.90;99.90
6843;DHT22;3460;52.028;8.916;2023-04-19T09:31:27;11.70;99.90
6843;DHT22;3460;52.028;8.916;2023-04-19T09:33:54;11.40;99.90
6843;DHT22;3460;52.028;8.916;2023-04-19T09:36:28;11.10;99.90
6843;DHT22;3460;52.028;8.916;2023-04-19T09:38:57;11.20;99.90
6843;DHT22;3460;52.028;8.916;2023-04-19T09:41:24;11.30;99.90
6843;DHT22;3460;52.028;8.916;2023-04-19T09:43:52;11.50;99.90
6843;DHT22;3460;52.028;8.916;2023-04-19T09:46:32;11.70;99.90
6843;DHT22;3460;52.028;8.916;2023-04-19T09:49:15;11.70;99.90
6843;DHT22;3460;52.028;8.916;2023-04-19T09:51:45;11.80;99.90
6843;DHT22;3460;52.028;8.916;2023-04-19T09:54:15;11.70;99.90
6843;DHT22;3460;52.028;8.916;2023-04-19T09:56:42;11.70;99.90
6843;DHT22;3460;52.028;8.916;2023-04-19T09:59:10;11.70;99.90
6843;DHT22;3460;52.028;8.916;2023-04-19T10:01:39;11.80;99.90
6843;DHT22;3460;52.028;8.916;2023-04-19T10:04:09;11.80;99.90
6843;DHT22;3460;52.028;8.916;2023-04-19T10:06:38;11.80;99.90
6843;DHT22;3460;52.028;8.916;2023-04-19T10:09:06;12.00;99.90
6843;DHT22;3460;52.028;8.916;2023-04-19T10:11:36;11.80;99.90
6843;DHT22;3460;52.028;8.916;2023-04-19T10:14:05;11.80;99.90
6843;DHT22;3460;52.028;8.916;2023-04-19T10:16:33;11.80;99.90
6843;DHT22;3460;52.028;8.916;2023-04-19T10:19:02;11.90;99.90
6843;DHT22;3460;52.028;8.916;2023-04-19T10:21:30;12.00;99.90
6843;DHT22;3460;52.028;8.916;2023-04-19T10:23:58;12.00;99.90
6843;DHT22;3460;52.028;8.916;2023-04-19T10:26:25;12.00;99.90
6843;DHT22;3460;52.028;8.916;2023-04-19T10:28:54;12.20;99.90
6843;DHT22;3460;52.028;8.916;2023-04-19T10:31:24;12.10;99.90
6843;DHT22;3460;52.028;8.916;2023-04-19T10:33:52;12.30;99.90
6843;DHT22;3460;52.028;8.916;2023-04-19T10:36:19;12.10;99.90
6843;DHT22;3460;52.028;8.916;2023-04-19T10:38:47;12.50;99.90
6843;DHT22;3460;52.028;8.916;2023-04-19T10:41:17;12.70;99.90
6843;DHT22;3460;52.028;8.916;2023-04-19T10:43:46;12.40;99.90
6843;DHT22;3460;52.028;8.916;2023-04-19T10:46:35;12.50;99.90
6843;DHT22;3460;52.028;8.916;2023-04-19T10:49:03;12.40;99.90
6843;DHT22;3460;52.028;8.916;2023-04-19T10:51:32;12.40;99.90
6843;DHT22;3460;52.028;8.916;2023-04-19T10:54:00;12.30;99.90
6843;DHT22;3460;52.028;8.916;2023-04-19T10:56:55;12.30;99.90
6843;DHT22;3460;52.028;8.916;2023-04-19T10:59:22;12.60;99.90
6843;DHT22;3460;52.028;8.916;2023-04-19T11:01:53;12.70;99.90
6843;DHT22;3460;52.028;8.916;2023-04-19T11:07:08;12.60;99.90
6843;DHT22;3460;52.028;8.916;2023-04-19T11:09:36;12.80;99.90
6843;DHT22;3460;52.028;8.916;2023-04-19T11:12:05;12.70;99.90
6843;DHT22;3460;52.028;8.916;2023-04-19T11:14:34;12.80;99.90
6843;DHT22;3460;52.028;8.916;2023-04-19T11:17:12;12.70;99.90
6843;DHT22;3460;52.028;8.916;2023-04-19T11:19:41;12.50;99.90
6843;DHT22;3460;52.028;8.916;2023-04-19T11:22:09;12.60;99.90
6843;DHT22;3460;52.028;8.916;2023-04-19T11:24:35;12.70;99.90
6843;DHT22;3460;52.028;8.916;2023-04-19T11:27:06;12.60;99.90
6843;DHT22;3460;52.028;8.916;2023-04-19T11:29:33;12.70;99.90
6843;DHT22;3460;52.028;8.916;2023-04-19T11:32:00;12.60;99.90
6843;DHT22;3460;52.028;8.916;2023-04-19T11:34:28;12.50;99.90
6843;DHT22;3460;52.028;8.916;2023-04-19T11:36:55;12.60;99.90
6843;DHT22;3460;52.028;8.916;2023-04-19T11:39:22;12.60;99.90
6843;DHT22;3460;52.028;8.916;2023-04-19T11:41:49;12.70;99.90
6843;DHT22;3460;52.028;8.916;2023-04-19T11:44:16;12.60;99.90
6843;DHT22;3460;52.028;8.916;2023-04-19T11:46:57;12.80;99.90
6843;DHT22;3460;52.028;8.916;2023-04-19T11:49:30;12.90;99.90
6843;DHT22;3460;52.028;8.916;2023-04-19T11:51:58;12.60;99.90
6843;DHT22;3460;52.028;8.916;2023-04-19T11:54:25;12.90;99.90
6843;DHT22;3460;52.028;8.916;2023-04-19T11:56:59;13.00;99.90
6843;DHT22;3460;52.028;8.916;2023-04-19T11:59:28;12.90;99.90
6843;DHT22;3460;52.028;8.916;2023-04-19T12:01:54;13.00;99.90
6843;DHT22;3460;52.028;8.916;2023-04-19T12:04:21;13.10;99.90
6843;DHT22;3460;52.028;8.916;2023-04-19T12:06:57;13.20;99.90
6843;DHT22;3460;52.028;8.916;2023-04-19T12:09:25;13.20;99.90
6843;DHT22;3460;52.028;8.916;2023-04-19T12:11:52;13.30;99.90
6843;DHT22;3460;52.028;8.916;2023-04-19T12:14:20;13.40;99.90
6843;DHT22;3460;52.028;8.916;2023-04-19T12:17:03;13.40;99.90
6843;DHT22;3460;52.028;8.916;2023-04-19T12:19:34;13.50;99.90
6843;DHT22;3460;52.028;8.916;2023-04-19T12:22:10;13.40;99.90
6843;DHT22;3460;52.028;8.916;2023-04-19T12:24:38;13.30;99.90
6843;DHT22;3460;52.028;8.916;2023-04-19T12:27:05;13.40;99.90
6843;DHT22;3460;52.028;8.916;2023-04-19T12:29:32;13.40;99.90
6843;DHT22;3460;52.028;8.916;2023-04-19T12:31:59;13.50;99.90
6843;DHT22;3460;52.028;8.916;2023-04-19T12:34:26;13.50;99.90
6843;DHT22;3460;52.028;8.916;2023-04-19T12:36:53;13.50;99.90
6843;DHT22;3460;52.028;8.916;2023-04-19T12:39:22;13.50;99.90
6843;DHT22;3460;52.028;8.916;2023-04-19T12:41:49;13.70;99.90
6843;DHT22;3460;52.028;8.916;2023-04-19T12:44:16;13.90;99.90
6843;DHT22;3460;52.028;8.916;2023-04-19T12:46:43;13.90;99.90
6843;DHT22;3460;52.028;8.916;2023-04-19T12:49:09;13.90;99.90
6843;DHT22;3460;52.028;8.916;2023-04-19T12:51:36;13.90;99.90
6843;DHT22;3460;52.028;8.916;2023-04-19T12:54:03;13.70;99.90
6843;DHT22;3460;52.028;8.916;2023-04-19T12:56:33;13.60;99.90
6843;DHT22;3460;52.028;8.916;2023-04-19T12:59:00;13.60;99.90
6843;DHT22;3460;52.028;8.916;2023-04-19T13:01:27;13.80;99.90
6843;DHT22;3460;52.028;8.916;2023-04-19T13:03:53;13.90;99.90
6843;DHT22;3460;52.028;8.916;2023-04-19T13:06:20;13.80;99.90
6843;DHT22;3460;52.028;8.916;2023-04-19T13:08:47;13.70;99.90
6843;DHT22;3460;52.028;8.916;2023-04-19T13:11:14;13.70;99.90
6843;DHT22;3460;52.028;8.916;2023-04-19T13:13:43;13.70;99.90
6843;DHT22;3460;52.028;8.916;2023-04-19T13:16:10;13.60;99.90
6843;DHT22;3460;52.028;8.916;2023-04-19T13:18:36;13.70;99.90
6843;DHT22;3460;52.028;8.916;2023-04-19T13:21:03;13.90;99.90
6843;DHT22;3460;52.028;8.916;2023-04-19T13:23:30;14.00;99.90
6843;DHT22;3460;52.028;8.916;2023-04-19T13:25:57;13.90;99.90
6843;DHT22;3460;52.028;8.916;2023-04-19T13:28:24;13.50;99.90
6843;DHT22;3460;52.028;8.916;2023-04-19T13:30:52;13.30;99.90
6843;DHT22;3460;52.028;8.916;2023-04-19T13:33:19;13.30;99.90
6843;DHT22;3460;52.028;8.916;2023-04-19T13:35:46;13.50;99.90
6843;DHT22;3460;52.028;8.916;2023-04-19T13:38:13;13.70;99.90
6843;DHT22;3460;52.028;8.916;2023-04-19T13:40:39;13.80;99.90
6843;DHT22;3460;52.028;8.916;2023-04-19T13:43:06;13.70;99.90
6843;DHT22;3460;52.028;8.916;2023-04-19T13:45:33;13.70;99.90
6843;DHT22;3460;52.028;8.916;2023-04-19T13:48:01;13.80;99.90
6843;DHT22;3460;52.028;8.916;2023-04-19T13:50:28;13.80;99.90
6843;DHT22;3460;52.028;8.916;2023-04-19T13:52:55;13.90;99.90
6843;DHT22;3460;52.028;8.916;2023-04-19T13:55:22;13.90;99.90
6843;DHT22;3460;52.028;8.916;2023-04-19T13:57:48;13.90;99.90
6843;DHT22;3460;52.028;8.916;2023-04-19T14:00:16;14.10;99.90
6843;DHT22;3460;52.028;8.916;2023-04-19T14:02:44;13.90;99.90
6843;DHT22;3460;52.028;8.916;2023-04-19T14:05:12;14.20;99.90
6843;DHT22;3460;52.028;8.916;2023-04-19T14:07:39;14.30;99.90
6843;DHT22;3460;52.028;8.916;2023-04-19T14:10:07;14.10;99.90
6843;DHT22;3460;52.028;8.916;2023-04-19T14:12:34;14.10;99.90
6843;DHT22;3460;52.028;8.916;2023-04-19T14:15:02;13.80;99.90
6843;DHT22;3460;52.028;8.916;2023-04-19T14:17:29;13.50;99.90
6843;DHT22;3460;52.028;8.916;2023-04-19T14:19:56;13.20;99.90
6843;DHT22;3460;52.028;8.916;2023-04-19T14:22:24;13.10;99.90
6843;DHT22;3460;52.028;8.916;2023-04-19T14:24:51;13.20;99.90
6843;DHT22;3460;52.028;8.916;2023-04-19T14:27:17;13.50;99.90
6843;DHT22;3460;52.028;8.916;2023-04-19T14:29:44;13.50;99.90
6843;DHT22;3460;52.028;8.916;2023-04-19T14:32:11;13.30;99.90
6843;DHT22;3460;52.028;8.916;2023-04-19T14:34:38;13.00;99.90
6843;DHT22;3460;52.028;8.916;2023-04-19T14:37:05;13.00;99.90
6843;DHT22;3460;52.028;8.916;2023-04-19T14:39:33;13.00;99.90
6843;DHT22;3460;52.028;8.916;2023-04-19T14:42:00;12.90;99.90
6843;DHT22;3460;52.028;8.916;2023-04-19T14:44:27;12.80;99.90
6843;DHT22;3460;52.028;8.916;2023-04-19T14:46:54;12.80;99.90
6843;DHT22;3460;52.028;8.916;2023-04-19T14:49:21;12.90;99.90
6843;DHT22;3460;52.028;8.916;2023-04-19T14:51:48;12.90;99.90
6843;DHT22;3460;52.028;8.916;2023-04-19T14:54:15;12.80;99.90
6843;DHT22;3460;52.028;8.916;2023-04-19T14:56:43;12.90;99.90
6843;DHT22;3460;52.028;8.916;2023-04-19T14:59:11;12.80;99.90
6843;DHT22;3460;52.028;8.916;2023-04-19T15:01:38;12.80;99.90
6843;DHT22;3460;52.028;8.916;2023-04-19T15:04:04;12.90;99.90
6843;DHT22;3460;52.028;8.916;2023-04-19T15:06:31;12.90;99.90
6843;DHT22;3460;52.028;8.916;2023-04-19T15:08:58;12.90;99.90
6843;DHT22;3460;52.028;8.916;2023-04-19T15:11:25;12.70;99.90
6843;DHT22;3460;52.028;8.916;2023-04-19T15:13:53;12.50;99.90
6843;DHT22;3460;52.028;8.916;2023-04-19T15:16:20;12.40;99.90
6843;DHT22;3460;52.028;8.916;2023-04-19T15:18:47;12.50;99.90
6843;DHT22;3460;52.028;8.916;2023-04-19T15:21:14;12.60;99.90
6843;DHT22;3460;52.028;8.916;2023-04-19T15:23:40;12.60;99.90
6843;DHT22;3460;52.028;8.916;2023-04-19T15:26:08;12.60;99.90
6843;DHT22;3460;52.028;8.916;2023-04-19T15:28:35;12.60;99.90
6843;DHT22;3460;52.028;8.916;2023-04-19T15:31:06;12.60;99.90
6843;DHT22;3460;52.028;8.916;2023-04-19T15:33:34;12.50;99.90
6843;DHT22;3460;52.028;8.916;2023-04-19T15:36:02;12.40;99.90
6843;DHT22;3460;52.028;8.916;2023-04-19T15:38:30;12.20;99.90
6843;DHT22;3460;52.028;8.916;2023-04-19T15:40:57;12.10;99.90
6843;DHT22;3460;52.028;8.916;2023-04-19T15:43:25;12.10;99.90
6843;DHT22;3460;52.028;8.916;2023-04-19T15:45:51;12.20;99.90
6843;DHT22;3460;52.028;8.916;2023-04-19T15:48:20;12.20;99.90
6843;DHT22;3460;52.028;8.916;2023-04-19T15:50:47;12.20;99.90
6843;DHT22;3460;52.028;8.916;2023-04-19T15:53:13;12.10;99.90
6843;DHT22;3460;52.028;8.916;2023-04-19T15:55:40;12.10;99.90
6843;DHT22;3460;52.028;8.916;2023-04-19T15:58:07;12.10;99.90
6843;DHT22;3460;52.028;8.916;2023-04-19T16:00:34;12.10;99.90
6843;DHT22;3460;52.028;8.916;2023-04-19T16:03:01;12.10;99.90
6843;DHT22;3460;52.028;8.916;2023-04-19T16:05:29;12.00;99.90
6843;DHT22;3460;52.028;8.916;2023-04-19T16:08:03;11.90;99.90
6843;DHT22;3460;52.028;8.916;2023-04-19T16:10:30;11.80;99.90
6843;DHT22;3460;52.028;8.916;2023-04-19T16:12:57;11.90;99.90
6843;DHT22;3460;52.028;8.916;2023-04-19T16:15:24;12.00;99.90